createdAt,value
2019-03-24T00:02:29.096Z,65.50
2019-03-24T00:05:00.570Z,67.37
2019-03-24T00:07:33.390Z,63.00
2019-03-24T00:10:05.415Z,62.33
2019-03-24T00:12:39.660Z,58.57
2019-03-24T00:15:10.490Z,60.27
2019-03-24T00:17:44.034Z,60.70
2019-03-24T00:20:18.596Z,61.23
2019-03-24T00:22:49.927Z,58.97
2019-03-24T00:25:21.656Z,58.03
2019-03-24T00:27:52.498Z,57.73
2019-03-24T00:30:24.580Z,57.43
2019-03-24T00:32:56.784Z,57.87
2019-03-24T00:35:27.879Z,57.13
2019-03-24T00:38:01.305Z,54.47
2019-03-24T00:40:35.074Z,57.73
2019-03-24T00:43:06.230Z,57.17
2019-03-24T00:45:37.366Z,55.33
2019-03-24T00:48:09.164Z,51.50
2019-03-24T00:50:40.487Z,53.20
2019-03-24T00:53:12.498Z,52.93
2019-03-24T00:55:45.798Z,52.00
2019-03-24T00:58:18.219Z,49.83
2019-03-24T01:00:52.160Z,45.13
2019-03-24T01:03:25.762Z,42.97
2019-03-24T01:05:57.749Z,42.63
2019-03-24T01:08:29.429Z,42.47
2019-03-24T01:11:02.137Z,42.77
2019-03-24T01:13:33.569Z,38.33
2019-03-24T01:16:05.926Z,36.83
2019-03-24T01:18:38.837Z,34.70
2019-03-24T01:21:10.080Z,32.97
2019-03-24T01:23:41.291Z,35.93
2019-03-24T01:26:12.075Z,31.63
2019-03-24T01:28:43.583Z,31.90
2019-03-24T01:31:16.518Z,29.97
2019-03-24T01:33:51.077Z,32.33
2019-03-24T01:36:24.396Z,31.10
2019-03-24T01:38:56.527Z,32.40
2019-03-24T01:41:28.486Z,31.10
2019-03-24T01:44:00.223Z,32.60
2019-03-24T01:46:32.512Z,34.67
2019-03-24T01:49:06.366Z,30.77
2019-03-24T01:51:37.526Z,29.93
2019-03-24T01:54:08.707Z,27.63
2019-03-24T01:56:40.599Z,31.00
2019-03-24T01:59:12.200Z,30.47
2019-03-24T02:01:45.306Z,31.17
2019-03-24T02:04:16.464Z,29.53
2019-03-24T02:06:48.008Z,27.77
2019-03-24T02:09:19.165Z,28.50
2019-03-24T02:11:51.297Z,27.40
2019-03-24T02:14:23.330Z,29.27
2019-03-24T02:16:54.847Z,29.03
2019-03-24T02:19:27.027Z,29.87
2019-03-24T02:21:58.142Z,25.70
2019-03-24T02:24:29.706Z,31.50
2019-03-24T02:27:00.523Z,28.87
2019-03-24T02:29:33.466Z,26.83
2019-03-24T02:32:04.592Z,32.17
2019-03-24T02:34:36.767Z,30.23
2019-03-24T02:37:08.219Z,29.27
2019-03-24T02:39:41.201Z,29.63
2019-03-24T02:42:12.591Z,29.53
2019-03-24T02:44:45.221Z,28.10
2019-03-24T02:47:16.939Z,28.93
2019-03-24T02:49:51.494Z,26.37
2019-03-24T02:52:22.503Z,31.67
2019-03-24T02:54:55.231Z,29.43
2019-03-24T02:57:27.190Z,26.73
2019-03-24T02:59:58.313Z,29.73
2019-03-24T03:02:29.047Z,28.97
2019-03-24T03:05:01.411Z,29.30
2019-03-24T03:07:33.093Z,28.57
2019-03-24T03:10:05.469Z,30.47
2019-03-24T03:12:36.565Z,29.27
2019-03-24T03:15:07.953Z,32.63
2019-03-24T03:17:39.143Z,31.07
2019-03-24T03:20:13.141Z,28.80
2019-03-24T03:22:45.335Z,31.27
2019-03-24T03:25:17.255Z,29.67
2019-03-24T03:27:51.077Z,31.47
2019-03-24T03:30:24.137Z,27.30
2019-03-24T03:32:55.274Z,29.17
2019-03-24T03:35:28.667Z,27.47
2019-03-24T03:38:00.379Z,31.60
2019-03-24T03:40:34.288Z,27.33
2019-03-24T03:43:05.026Z,29.97
2019-03-24T03:45:39.151Z,27.17
2019-03-24T03:48:09.345Z,28.70
2019-03-24T03:50:42.576Z,34.73
2019-03-24T03:53:15.162Z,34.13
2019-03-24T03:55:46.284Z,27.60
2019-03-24T03:58:16.820Z,29.03
2019-03-24T04:00:48.078Z,34.67
2019-03-24T04:03:19.426Z,31.70
2019-03-24T04:05:52.324Z,31.70
2019-03-24T04:08:24.728Z,34.27
2019-03-24T04:10:57.686Z,33.57
2019-03-24T04:13:28.670Z,30.70
2019-03-24T04:16:00.630Z,28.23
2019-03-24T04:18:31.358Z,34.80
2019-03-24T04:21:05.713Z,31.83
2019-03-24T04:23:36.805Z,30.70
2019-03-24T04:26:07.884Z,34.53
2019-03-24T04:28:39.583Z,33.53
2019-03-24T04:31:11.974Z,31.37
2019-03-24T04:33:44.312Z,35.97
2019-03-24T04:36:16.371Z,35.43
2019-03-24T04:38:50.361Z,34.93
2019-03-24T04:41:22.380Z,35.10
2019-03-24T04:43:53.560Z,36.37
2019-03-24T04:46:26.042Z,38.93
2019-03-24T04:48:56.775Z,37.80
2019-03-24T04:51:30.798Z,34.10
2019-03-24T04:54:01.934Z,34.63
2019-03-24T04:56:33.572Z,36.17
2019-03-24T04:59:06.076Z,37.87
2019-03-24T05:01:39.400Z,36.13
2019-03-24T05:04:10.505Z,34.70
2019-03-24T05:06:44.563Z,35.53
2019-03-24T05:09:17.796Z,32.10
2019-03-24T05:11:50.885Z,38.50
2019-03-24T05:14:23.466Z,39.30
2019-03-24T05:16:56.270Z,41.40
2019-03-24T05:19:29.587Z,35.07
2019-03-24T05:22:04.454Z,34.87
2019-03-24T05:24:36.152Z,38.20
2019-03-24T05:27:07.202Z,38.03
2019-03-24T05:29:41.431Z,35.10
2019-03-24T05:32:12.174Z,38.50
2019-03-24T05:34:43.908Z,37.87
2019-03-24T05:37:16.178Z,37.57
2019-03-24T05:39:47.362Z,38.63
2019-03-24T05:42:18.494Z,41.47
2019-03-24T05:44:52.751Z,43.33
2019-03-24T05:47:24.303Z,39.37
2019-03-24T05:50:00.763Z,43.03
2019-03-24T05:52:32.749Z,38.20
2019-03-24T05:55:06.194Z,44.77
2019-03-24T05:57:38.380Z,44.50
2019-03-24T06:00:10.456Z,37.80
2019-03-24T06:02:45.449Z,41.80
2019-03-24T06:05:16.943Z,42.33
2019-03-24T06:07:48.692Z,39.70
2019-03-24T06:10:20.150Z,42.73
2019-03-24T06:12:51.361Z,41.23
2019-03-24T06:15:22.984Z,44.57
2019-03-24T06:17:53.737Z,46.03
2019-03-24T06:20:24.835Z,44.87
2019-03-24T06:22:56.834Z,41.83
2019-03-24T06:25:28.261Z,44.33
2019-03-24T06:28:00.368Z,44.57
2019-03-24T06:30:33.043Z,47.80
2019-03-24T06:33:05.052Z,44.37
2019-03-24T06:35:36.598Z,49.73
2019-03-24T06:38:10.557Z,48.73
2019-03-24T06:40:45.307Z,43.50
2019-03-24T06:43:16.746Z,48.30
2019-03-24T06:45:49.425Z,45.40
2019-03-24T06:48:22.229Z,47.60
2019-03-24T06:50:53.695Z,46.03
2019-03-24T06:53:28.256Z,55.53
2019-03-24T06:56:01.007Z,44.83
2019-03-24T06:58:34.283Z,52.43
2019-03-24T07:01:07.126Z,46.50
2019-03-24T07:03:38.768Z,46.70
2019-03-24T07:06:10.000Z,55.77
2019-03-24T07:08:40.733Z,45.83
2019-03-24T07:11:13.730Z,48.10
2019-03-24T07:13:44.231Z,53.37
2019-03-24T07:16:15.414Z,55.30
2019-03-24T07:18:47.681Z,47.73
2019-03-24T07:21:18.416Z,51.87
2019-03-24T07:23:51.457Z,54.40
2019-03-24T07:26:23.066Z,52.70
2019-03-24T07:28:54.227Z,55.43
2019-03-24T07:31:26.952Z,53.57
2019-03-24T07:34:00.742Z,55.10
2019-03-24T07:36:33.114Z,59.33
2019-03-24T07:39:08.028Z,68.20
2019-03-24T07:41:39.136Z,56.93
2019-03-24T07:44:10.434Z,56.80
2019-03-24T07:46:42.602Z,59.63
2019-03-24T07:49:13.407Z,53.40
2019-03-24T07:51:44.139Z,57.00
2019-03-24T07:54:15.834Z,61.97
2019-03-24T07:56:47.772Z,56.13
2019-03-24T07:59:18.535Z,52.57
2019-03-24T08:01:49.283Z,56.63
2019-03-24T08:04:20.311Z,60.87
2019-03-24T08:06:51.778Z,53.47
2019-03-24T08:09:23.265Z,59.73
2019-03-24T08:11:59.923Z,54.30
2019-03-24T08:14:35.185Z,58.67
2019-03-24T08:17:06.861Z,51.30
2019-03-24T08:19:37.612Z,58.50
2019-03-24T08:22:10.763Z,59.37
2019-03-24T08:24:44.528Z,59.63
2019-03-24T08:27:15.981Z,58.90
2019-03-24T08:29:48.262Z,60.57
2019-03-24T08:32:20.812Z,54.63
2019-03-24T08:34:56.055Z,57.60
2019-03-24T08:37:27.734Z,63.53
2019-03-24T08:39:59.636Z,66.60
2019-03-24T08:42:30.814Z,62.40
2019-03-24T08:45:02.085Z,62.43
2019-03-24T08:47:33.493Z,66.87
2019-03-24T08:50:05.058Z,63.40
2019-03-24T08:52:35.830Z,63.77
2019-03-24T08:55:09.051Z,55.17
2019-03-24T08:57:42.669Z,61.30
2019-03-24T09:00:14.717Z,59.50
2019-03-24T09:02:47.711Z,53.07
2019-03-24T09:05:19.217Z,54.80
2019-03-24T09:07:51.140Z,56.73
2019-03-24T09:10:22.318Z,52.10
2019-03-24T09:12:54.330Z,62.67
2019-03-24T09:15:26.405Z,55.00
2019-03-24T09:17:58.031Z,54.17
2019-03-24T09:20:29.763Z,60.70
2019-03-24T09:23:20.456Z,58.70
2019-03-24T09:25:52.812Z,59.17
2019-03-24T09:28:24.414Z,55.60
2019-03-24T09:30:57.353Z,62.57
2019-03-24T09:33:28.610Z,60.10
2019-03-24T09:36:00.841Z,60.73
2019-03-24T09:38:34.100Z,53.30
2019-03-24T09:41:07.331Z,54.13
2019-03-24T09:43:38.404Z,53.27
2019-03-24T09:46:12.094Z,51.90
2019-03-24T09:48:43.852Z,53.27
2019-03-24T09:51:16.043Z,56.57
2019-03-24T09:53:47.191Z,56.30
2019-03-24T09:56:19.864Z,49.37
2019-03-24T09:58:51.328Z,50.30
2019-03-24T10:01:23.780Z,49.43
2019-03-24T10:03:54.844Z,48.20
2019-03-24T10:06:26.584Z,49.33
2019-03-24T10:08:58.182Z,45.20
2019-03-24T10:11:30.575Z,44.50
2019-03-24T10:14:04.230Z,39.73
2019-03-24T10:16:35.001Z,41.90
2019-03-24T10:19:13.908Z,44.40
2019-03-24T10:21:40.990Z,46.73
2019-03-24T10:24:12.964Z,41.60
2019-03-24T10:26:46.669Z,40.00
2019-03-24T10:29:17.795Z,40.53
2019-03-24T10:31:52.758Z,38.17
2019-03-24T10:34:23.775Z,42.10
2019-03-24T10:36:57.420Z,38.07
2019-03-24T10:39:28.179Z,45.07
2019-03-24T10:42:02.579Z,40.03
2019-03-24T10:44:33.522Z,38.07
2019-03-24T10:47:04.275Z,48.23
2019-03-24T10:49:36.160Z,41.33
2019-03-24T10:52:07.897Z,41.57
2019-03-24T10:54:38.655Z,37.50
2019-03-24T10:57:11.176Z,37.80
2019-03-24T10:59:43.921Z,37.03
2019-03-24T11:02:15.195Z,38.73
2019-03-24T11:04:46.041Z,34.30
2019-03-24T11:07:18.500Z,37.60
2019-03-24T11:09:49.793Z,39.27
2019-03-24T11:12:22.854Z,35.63
2019-03-24T11:14:55.068Z,30.13
2019-03-24T11:17:27.544Z,34.53
2019-03-24T11:20:00.942Z,27.07
2019-03-24T11:22:33.618Z,35.83
2019-03-24T11:25:04.646Z,37.63
2019-03-24T11:27:42.989Z,32.43
2019-03-24T11:30:14.624Z,33.80
2019-03-24T11:32:46.014Z,28.60
2019-03-24T11:35:18.050Z,32.77
2019-03-24T11:37:51.738Z,29.37
2019-03-24T11:40:23.912Z,30.47
2019-03-24T11:42:57.163Z,31.53
2019-03-24T11:45:28.964Z,25.97
2019-03-24T11:48:01.686Z,24.50
2019-03-24T11:50:32.438Z,30.50
2019-03-24T11:53:05.490Z,27.37
2019-03-24T11:55:37.381Z,30.63
2019-03-24T11:58:10.240Z,27.77
2019-03-24T12:00:44.596Z,21.63
2019-03-24T12:03:17.134Z,23.60
2019-03-24T12:05:53.967Z,22.27
2019-03-24T12:08:24.764Z,25.83
2019-03-24T12:10:56.214Z,24.40
2019-03-24T12:13:27.963Z,23.63
2019-03-24T12:15:59.984Z,22.17
2019-03-24T12:18:35.493Z,23.77
2019-03-24T12:21:07.076Z,19.03
2019-03-24T12:23:41.330Z,18.53
2019-03-24T12:26:12.762Z,22.93
2019-03-24T12:28:45.615Z,26.97
2019-03-24T12:31:17.919Z,30.70
2019-03-24T12:33:49.842Z,28.60
2019-03-24T12:36:22.152Z,31.37
2019-03-24T12:38:53.788Z,32.37
2019-03-24T12:41:24.505Z,36.00
2019-03-24T12:43:57.321Z,28.40
2019-03-24T12:46:29.473Z,26.47
2019-03-24T12:49:00.493Z,28.60
2019-03-24T12:51:31.932Z,27.03
2019-03-24T12:54:03.758Z,36.10
2019-03-24T12:56:35.926Z,25.77
2019-03-24T12:59:08.666Z,28.23
2019-03-24T13:01:39.997Z,23.17
2019-03-24T13:04:12.155Z,24.90
2019-03-24T13:06:43.694Z,25.30
2019-03-24T13:09:14.436Z,19.03
2019-03-24T13:11:45.185Z,19.53
2019-03-24T13:14:18.724Z,17.00
2019-03-24T13:16:50.005Z,20.30
2019-03-24T13:19:21.921Z,19.47
2019-03-24T13:21:52.963Z,19.87
2019-03-24T13:24:24.216Z,18.37
2019-03-24T13:26:56.521Z,14.40
2019-03-24T13:29:30.598Z,13.30
2019-03-24T13:32:03.753Z,12.13
2019-03-24T13:34:37.404Z,14.13
2019-03-24T13:37:09.341Z,12.93
2019-03-24T13:39:41.462Z,12.87
2019-03-24T13:42:12.233Z,12.37
2019-03-24T13:44:45.265Z,12.07
2019-03-24T13:47:15.998Z,15.00
2019-03-24T13:49:47.932Z,10.67
2019-03-24T13:52:19.707Z,11.57
2019-03-24T13:54:52.072Z,14.07
2019-03-24T13:57:23.215Z,11.97
2019-03-24T13:59:55.628Z,16.67
2019-03-24T14:02:26.655Z,10.87
2019-03-24T14:04:58.112Z,14.67
2019-03-24T14:07:28.854Z,12.83
2019-03-24T14:10:00.362Z,9.07
2019-03-24T14:12:31.192Z,10.03
2019-03-24T14:15:02.443Z,8.93
2019-03-24T14:17:36.311Z,9.57
2019-03-24T14:20:08.601Z,15.17
2019-03-24T14:22:40.226Z,10.73
2019-03-24T14:25:12.326Z,11.30
2019-03-24T14:27:44.878Z,13.93
2019-03-24T14:30:27.244Z,12.17
2019-03-24T14:32:57.963Z,11.77
2019-03-24T14:35:29.621Z,12.63
2019-03-24T14:38:00.441Z,14.10
2019-03-24T14:40:31.927Z,10.87
2019-03-24T14:43:02.904Z,9.90
2019-03-24T14:45:36.905Z,12.17
2019-03-24T14:48:07.655Z,12.23
2019-03-24T14:50:40.370Z,10.20
2019-03-24T14:53:13.802Z,13.80
2019-03-24T14:55:45.240Z,10.17
2019-03-24T14:58:15.949Z,10.40
2019-03-24T15:00:48.903Z,9.77
2019-03-24T15:03:20.527Z,8.10
2019-03-24T15:05:52.325Z,10.87
2019-03-24T15:08:23.057Z,8.88
2019-03-24T15:10:54.582Z,9.38
2019-03-24T15:13:25.711Z,11.37
2019-03-24T15:15:58.593Z,8.87
2019-03-24T15:18:29.738Z,9.20
2019-03-24T15:21:05.883Z,9.55
2019-03-24T15:23:36.494Z,10.85
2019-03-24T15:26:08.535Z,7.90
2019-03-24T15:28:43.998Z,7.00
2019-03-24T15:31:19.880Z,8.35
2019-03-24T15:33:51.783Z,8.27
2019-03-24T15:36:23.643Z,7.10
2019-03-24T15:38:54.688Z,7.57
2019-03-24T15:41:25.441Z,8.23
2019-03-24T15:43:56.157Z,7.10
2019-03-24T15:46:29.769Z,6.53
2019-03-24T15:49:01.606Z,7.97
2019-03-24T15:51:34.958Z,9.23
2019-03-24T15:54:05.693Z,12.03
2019-03-24T15:56:37.224Z,11.70
2019-03-24T15:59:08.265Z,13.53
2019-03-24T16:01:40.643Z,6.13
2019-03-24T16:04:11.808Z,7.13
2019-03-24T16:06:43.374Z,8.40
2019-03-24T16:09:14.086Z,11.03
2019-03-24T16:11:44.933Z,7.57
2019-03-24T16:14:15.666Z,10.47
2019-03-24T16:16:47.405Z,24.60
2019-03-24T16:19:18.115Z,9.23
2019-03-24T16:21:49.234Z,6.30
2019-03-24T16:24:20.756Z,6.63
2019-03-24T16:26:52.099Z,17.53
2019-03-24T16:29:25.746Z,8.13
2019-03-24T16:31:58.931Z,14.37
2019-03-24T16:34:29.713Z,8.80
2019-03-24T16:37:01.089Z,9.40
2019-03-24T16:39:32.375Z,9.80
2019-03-24T16:42:03.528Z,12.60
2019-03-24T16:44:34.657Z,8.47
2019-03-24T16:47:11.617Z,8.30
2019-03-24T16:49:45.779Z,9.77
2019-03-24T16:52:16.960Z,8.30
2019-03-24T16:54:48.099Z,9.93
2019-03-24T16:57:20.233Z,9.13
2019-03-24T16:59:51.261Z,8.30
2019-03-24T17:02:23.718Z,10.73
2019-03-24T17:04:54.866Z,7.17
2019-03-24T17:07:26.170Z,13.50
2019-03-24T17:09:57.504Z,12.40
2019-03-24T17:12:28.636Z,9.37
2019-03-24T17:15:00.186Z,8.90
2019-03-24T17:17:35.475Z,8.93
2019-03-24T17:20:08.280Z,7.13
2019-03-24T17:22:39.975Z,7.40
2019-03-24T17:25:14.328Z,7.47
2019-03-24T17:27:46.886Z,6.83
2019-03-24T17:30:20.631Z,7.03
2019-03-24T17:32:55.066Z,9.17
2019-03-24T17:35:27.051Z,9.57
2019-03-24T17:38:01.382Z,8.17
2019-03-24T17:40:38.855Z,8.77
2019-03-24T17:43:08.916Z,12.33
2019-03-24T17:45:41.511Z,10.67
2019-03-24T17:48:19.103Z,9.97
2019-03-24T17:50:50.439Z,8.97
2019-03-24T17:53:25.303Z,8.67
2019-03-24T17:55:57.356Z,9.23
2019-03-24T17:58:32.588Z,9.13
2019-03-24T18:01:04.891Z,11.13
2019-03-24T18:03:37.511Z,9.33
2019-03-24T18:06:08.921Z,9.77
2019-03-24T18:08:44.622Z,11.07
2019-03-24T18:11:17.041Z,11.57
2019-03-24T18:13:48.962Z,9.17
2019-03-24T18:16:21.815Z,11.70
2019-03-24T18:18:53.981Z,10.30
2019-03-24T18:21:27.650Z,9.90
2019-03-24T18:24:00.606Z,9.03
2019-03-24T18:26:32.341Z,9.67
2019-03-24T18:29:04.565Z,13.87
2019-03-24T18:31:35.611Z,8.23
2019-03-24T18:34:08.427Z,8.67
2019-03-24T18:36:42.695Z,11.53
2019-03-24T18:39:14.915Z,12.10
2019-03-24T18:41:47.425Z,10.90
2019-03-24T18:44:22.665Z,11.17
2019-03-24T18:46:54.667Z,12.30
2019-03-24T18:49:26.515Z,8.03
2019-03-24T18:51:57.700Z,14.37
2019-03-24T18:54:31.680Z,17.87
2019-03-24T18:57:04.526Z,10.87
2019-03-24T18:59:35.524Z,13.27
2019-03-24T19:02:08.727Z,14.40
2019-03-24T19:04:43.106Z,13.03
2019-03-24T19:07:14.505Z,16.27
2019-03-24T19:09:46.523Z,9.97
2019-03-24T19:12:19.217Z,12.10
2019-03-24T19:14:53.091Z,10.83
2019-03-24T19:17:25.748Z,11.93
2019-03-24T19:19:59.369Z,11.17
2019-03-24T19:22:33.847Z,15.77
2019-03-24T19:25:09.271Z,12.97
2019-03-24T19:27:41.874Z,13.30
2019-03-24T19:30:18.252Z,14.70
2019-03-24T19:32:51.343Z,13.87
2019-03-24T19:35:28.366Z,14.70
2019-03-24T19:38:01.460Z,20.03
2019-03-24T19:40:35.553Z,18.73
2019-03-24T19:43:07.032Z,13.27
2019-03-24T19:45:38.296Z,14.63
2019-03-24T19:48:09.858Z,15.60
2019-03-24T19:50:42.183Z,12.17
2019-03-24T19:53:13.507Z,17.13
2019-03-24T19:55:44.540Z,14.30
2019-03-24T19:58:16.152Z,17.70
2019-03-24T20:00:48.987Z,15.27
2019-03-24T20:03:21.526Z,14.30
2019-03-24T20:05:53.657Z,14.60
2019-03-24T20:08:24.954Z,18.50
2019-03-24T20:10:57.247Z,17.53
2019-03-24T20:13:28.038Z,17.43
2019-03-24T20:15:59.809Z,17.63
2019-03-24T20:18:31.233Z,17.87
2019-03-24T20:21:05.632Z,20.53
2019-03-24T20:23:39.510Z,12.40
2019-03-24T20:26:10.317Z,15.37
2019-03-24T20:28:41.416Z,17.07
2019-03-24T20:31:13.747Z,10.93
2019-03-24T20:33:46.558Z,13.37
2019-03-24T20:36:22.193Z,16.20
2019-03-24T20:38:57.041Z,22.10
2019-03-24T20:41:28.513Z,17.33
2019-03-24T20:43:59.758Z,14.20
2019-03-24T20:46:31.025Z,15.80
2019-03-24T20:49:02.639Z,14.20
2019-03-24T20:51:36.412Z,17.30
2019-03-24T20:54:08.483Z,13.40
2019-03-24T20:56:39.942Z,17.60
2019-03-24T20:59:11.119Z,13.43
2019-03-24T21:01:43.144Z,20.33
2019-03-24T21:04:14.255Z,21.17
2019-03-24T21:06:46.233Z,16.70
2019-03-24T21:09:18.072Z,14.07
2019-03-24T21:11:49.360Z,13.33
2019-03-24T21:14:20.392Z,19.13
2019-03-24T21:16:51.855Z,17.10
2019-03-24T21:19:23.810Z,13.13
2019-03-24T21:21:57.017Z,17.20
2019-03-24T21:24:28.852Z,16.20
2019-03-24T21:26:59.722Z,16.50
2019-03-24T21:29:31.315Z,18.87
2019-03-24T21:32:03.898Z,13.47
2019-03-24T21:34:35.028Z,15.53
2019-03-24T21:37:09.565Z,15.57
2019-03-24T21:39:40.687Z,13.90
2019-03-24T21:42:17.057Z,19.57
2019-03-24T21:44:47.886Z,17.73
2019-03-24T21:47:21.271Z,13.87
2019-03-24T21:49:54.383Z,15.13
2019-03-24T21:52:27.918Z,17.53
2019-03-24T21:55:03.127Z,17.13
2019-03-24T21:57:34.325Z,20.20
2019-03-24T22:00:08.873Z,15.10
2019-03-24T22:02:41.251Z,22.63
2019-03-24T22:05:15.412Z,20.07
2019-03-24T22:07:53.027Z,23.00
2019-03-24T22:10:28.138Z,23.37
2019-03-24T22:13:01.790Z,16.93
2019-03-24T22:15:34.791Z,19.47
2019-03-24T22:18:06.396Z,21.00
2019-03-24T22:20:48.268Z,20.47
2019-03-24T22:23:13.869Z,17.63
2019-03-24T22:25:45.762Z,15.37
2019-03-24T22:28:18.357Z,23.03
2019-03-24T22:30:49.078Z,15.40
2019-03-24T22:33:21.433Z,17.90
2019-03-24T22:35:53.092Z,15.43
2019-03-24T22:38:26.095Z,17.17
2019-03-24T22:40:57.901Z,16.70
2019-03-24T22:43:29.614Z,12.47
2019-03-24T22:46:03.430Z,18.90
2019-03-24T22:48:36.494Z,17.47
2019-03-24T22:51:10.122Z,14.97
2019-03-24T22:53:42.057Z,20.80
2019-03-24T22:56:15.997Z,18.53
2019-03-24T22:58:48.305Z,13.73
2019-03-24T23:01:22.690Z,15.20
2019-03-24T23:03:56.364Z,19.67
2019-03-24T23:06:28.904Z,14.07
2019-03-24T23:09:02.045Z,18.67
2019-03-24T23:11:34.668Z,14.10
2019-03-24T23:14:07.125Z,21.83
2019-03-24T23:16:40.133Z,19.50
2019-03-24T23:19:12.008Z,20.33
2019-03-24T23:21:44.044Z,20.87
2019-03-24T23:24:18.864Z,19.37
2019-03-24T23:26:55.532Z,18.67
2019-03-24T23:29:27.334Z,20.03
2019-03-24T23:31:58.348Z,19.27
2019-03-24T23:34:29.924Z,20.17
2019-03-24T23:37:01.727Z,23.17
2019-03-24T23:39:39.871Z,25.40
2019-03-24T23:42:14.139Z,20.80
2019-03-24T23:44:47.901Z,25.27
2019-03-24T23:47:21.807Z,23.87
2019-03-24T23:49:54.288Z,18.80
2019-03-24T23:52:28.704Z,17.50
2019-03-24T23:55:03.670Z,22.47
2019-03-24T23:57:35.147Z,19.93
